Time;durP1;ratioP1;P1;durP2;ratioP2;P2;SDS_P1;SDS_P2;PMS_P1;PMS_P2;Temp;Humidity;BMP_temperature;BMP_pressure;BME280_temperature;BME280_humidity;BME280_pressure;Samples;Min_cycle;Max_cycle;Signal;HPM_P1;HPM_P2
2022/11/24 00:01:19;;;;;;;19.52;10.70;;;;;;;5.40;96.20;100051.50;4934157;29;20499;-71
2022/11/24 00:03:56;;;;;;;21.35;12.65;;;;;;;5.30;96.42;100064.97;4919556;29;20492;-70
2022/11/24 00:06:25;;;;;;;20.90;11.40;;;;;;;5.29;95.83;100071.47;4902657;29;20055;-70
2022/11/24 00:08:53;;;;;;;18.67;11.05;;;;;;;5.21;96.93;100078.16;4922931;29;20059;-70
2022/11/24 00:11:26;;;;;;;21.55;11.40;;;;;;;5.22;96.83;100080.63;4938464;29;20108;-71
2022/11/24 00:13:56;;;;;;;16.85;11.60;;;;;;;5.19;96.86;100077.63;4920722;29;20071;-71
2022/11/24 00:16:26;;;;;;;20.05;12.27;;;;;;;5.20;96.72;100076.53;4938338;29;20056;-70
2022/11/24 00:18:56;;;;;;;22.63;12.50;;;;;;;5.23;96.66;100092.31;4937719;29;20407;-71
2022/11/24 00:21:26;;;;;;;19.67;11.73;;;;;;;5.20;97.30;100087.38;4938046;29;20052;-71
2022/11/24 00:23:54;;;;;;;20.90;11.57;;;;;;;5.16;98.31;100087.09;4937851;29;20403;-71
2022/11/24 00:26:25;;;;;;;22.70;11.30;;;;;;;5.09;97.71;100087.28;4938015;29;20055;-71
2022/11/24 00:28:55;;;;;;;21.23;11.38;;;;;;;5.06;98.42;100093.22;4937766;29;20051;-71
2022/11/24 00:31:26;;;;;;;22.40;11.35;;;;;;;5.08;99.35;100099.22;4938076;29;20063;-71
2022/11/24 00:33:56;;;;;;;19.42;11.20;;;;;;;5.09;99.02;100103.56;4937669;29;20078;-71
2022/11/24 00:36:26;;;;;;;18.35;11.52;;;;;;;5.07;99.14;100094.88;4937852;29;20048;-70
2022/11/24 00:38:57;;;;;;;19.10;11.25;;;;;;;5.06;98.86;100095.94;4937709;29;20052;-70
2022/11/24 00:41:26;;;;;;;17.65;11.32;;;;;;;5.03;98.02;100104.56;4920270;29;20407;-70
2022/11/24 00:43:54;;;;;;;23.05;12.23;;;;;;;5.02;98.74;100102.09;4936901;29;20043;-70
2022/11/24 00:46:23;;;;;;;20.52;11.52;;;;;;;4.97;97.93;100105.59;4937485;29;20052;-71
2022/11/24 00:48:52;;;;;;;21.55;13.05;;;;;;;4.97;98.46;100108.31;4937676;29;20380;-71
2022/11/24 00:51:22;;;;;;;21.95;11.98;;;;;;;4.95;98.47;100102.31;4937769;29;20050;-70
2022/11/24 00:53:51;;;;;;;19.73;11.73;;;;;;;4.90;98.10;100104.97;4937421;29;20047;-70
2022/11/24 00:56:19;;;;;;;18.02;11.80;;;;;;;5.00;98.08;100105.09;4937681;29;20388;-70
2022/11/24 00:58:47;;;;;;;21.40;11.30;;;;;;;4.97;97.78;100105.59;4920714;29;20055;-70
2022/11/24 01:01:19;;;;;;;21.38;11.02;;;;;;;4.94;98.58;100111.53;4937463;29;20051;-70
2022/11/24 01:03:47;;;;;;;19.08;10.45;;;;;;;5.02;98.50;100112.97;4937301;29;20040;-70
2022/11/24 01:06:18;;;;;;;18.25;10.60;;;;;;;5.09;98.31;100114.41;4936152;29;20043;-71
2022/11/24 01:08:47;;;;;;;15.70;9.70;;;;;;;5.01;97.82;100106.72;4937330;29;20043;-70
2022/11/24 01:11:19;;;;;;;18.38;11.02;;;;;;;5.03;97.69;100120.03;4937357;29;20043;-71
2022/11/24 01:13:51;;;;;;;17.20;11.95;;;;;;;4.97;98.06;100122.69;4937099;29;20463;-70
2022/11/24 01:16:22;;;;;;;18.60;10.13;;;;;;;5.02;97.86;100132.78;4937322;29;20051;-70
2022/11/24 01:18:50;;;;;;;15.90;9.88;;;;;;;4.84;97.54;100129.31;4920116;29;20043;-70
2022/11/24 01:21:19;;;;;;;14.48;8.25;;;;;;;4.81;97.63;100132.53;4945495;29;20577;-70
2022/11/24 01:23:47;;;;;;;18.92;10.07;;;;;;;4.81;97.85;100135.25;4948517;29;20048;-70
2022/11/24 01:26:18;;;;;;;16.42;9.80;;;;;;;4.81;98.21;100145.28;4937036;29;20051;-70
2022/11/24 01:28:46;;;;;;;20.83;9.52;;;;;;;4.76;97.65;100139.78;4936944;29;20055;-69
2022/11/24 01:31:15;;;;;;;15.02;8.98;;;;;;;4.76;97.25;100140.59;4936461;29;20048;-69
2022/11/24 01:33:43;;;;;;;17.50;9.10;;;;;;;4.70;98.54;100142.41;4936707;29;20399;-69
2022/11/24 01:36:12;;;;;;;17.25;8.85;;;;;;;4.74;98.40;100145.44;4923056;29;20056;-69
2022/11/24 01:38:40;;;;;;;16.58;9.18;;;;;;;4.79;98.27;100144.72;4916743;29;20036;-69
2022/11/24 01:41:13;;;;;;;14.27;8.98;;;;;;;4.81;97.90;100148.81;4917771;29;20060;-69
2022/11/24 01:43:43;;;;;;;13.57;9.13;;;;;;;4.91;97.79;100156.25;4923058;29;20047;-69
2022/11/24 01:46:13;;;;;;;20.20;9.93;;;;;;;4.83;97.41;100143.94;4936711;29;20048;-69
2022/11/24 01:48:47;;;;;;;16.08;9.95;;;;;;;4.69;96.84;100150.78;4936700;29;20044;-69
2022/11/24 01:51:20;;;;;;;18.95;10.20;;;;;;;4.74;96.54;100150.06;4936763;29;20395;-69
2022/11/24 01:53:55;;;;;;;17.67;10.10;;;;;;;4.64;96.85;100150.75;4936476;29;20059;-70
2022/11/24 01:56:25;;;;;;;13.25;9.07;;;;;;;4.52;96.12;100151.69;4936574;29;20059;-69
2022/11/24 01:58:58;;;;;;;16.88;10.85;;;;;;;4.46;96.29;100152.69;4936482;29;20059;-69
2022/11/24 02:01:28;;;;;;;15.60;9.32;;;;;;;4.44;96.44;100158.34;4936084;29;20062;-69
2022/11/24 02:03:57;;;;;;;19.52;10.18;;;;;;;4.37;96.45;100156.88;4918453;29;20490;-69
2022/11/24 02:06:28;;;;;;;17.42;9.98;;;;;;;4.38;97.26;100163.94;4921270;29;20052;-69
2022/11/24 02:09:02;;;;;;;15.48;9.80;;;;;;;4.27;97.28;100150.25;4916052;29;20044;-69
2022/11/24 02:11:36;;;;;;;18.88;9.35;;;;;;;4.30;97.45;100147.03;4918915;29;20052;-68
2022/11/24 02:14:06;;;;;;;12.65;8.70;;;;;;;4.35;97.98;100159.03;4935976;29;20048;-69
2022/11/24 02:16:35;;;;;;;14.45;8.85;;;;;;;4.34;99.18;100157.38;4935985;29;20048;-69
2022/11/24 02:19:13;;;;;;;16.83;9.88;;;;;;;4.41;98.50;100168.88;4936126;29;20052;-69
2022/11/24 02:21:40;;;;;;;17.73;9.05;;;;;;;4.49;98.16;100167.63;4918642;29;20043;-69
2022/11/24 02:24:17;;;;;;;16.80;9.07;;;;;;;4.55;97.13;100170.13;4935795;29;20483;-69
2022/11/24 02:26:47;;;;;;;14.35;8.30;;;;;;;4.48;97.60;100174.91;4935962;29;20048;-69
2022/11/24 02:29:15;;;;;;;14.30;8.68;;;;;;;4.53;96.66;100182.28;4935828;29;20411;-69
2022/11/24 02:31:53;;;;;;;16.10;9.15;;;;;;;4.51;95.54;100185.28;4916826;29;20047;-69
2022/11/24 02:34:21;;;;;;;13.52;8.07;;;;;;;4.41;95.49;100196.75;4930111;29;20043;-69
2022/11/24 02:36:49;;;;;;;14.48;8.85;;;;;;;4.23;96.70;100189.72;4935796;29;20078;-69
2022/11/24 02:39:17;;;;;;;10.88;6.95;;;;;;;4.15;97.11;100199.09;4935754;29;20051;-69
2022/11/24 02:41:59;;;;;;;12.05;7.85;;;;;;;4.19;97.02;100190.47;4903058;29;20052;-69
2022/11/24 02:44:31;;;;;;;10.43;7.20;;;;;;;4.15;96.58;100192.84;4935240;29;20403;-69
2022/11/24 02:47:11;;;;;;;10.07;7.00;;;;;;;4.16;96.76;100200.72;4917928;29;20055;-69
2022/11/24 02:49:40;;;;;;;11.93;7.40;;;;;;;4.16;97.02;100197.22;4935530;29;20055;-69
2022/11/24 02:52:08;;;;;;;12.88;6.45;;;;;;;4.12;96.95;100209.59;4935621;29;20043;-69
2022/11/24 02:54:36;;;;;;;11.05;6.72;;;;;;;4.16;97.02;100206.13;4935231;29;20055;-69
2022/11/24 02:57:04;;;;;;;12.07;6.78;;;;;;;4.20;97.38;100201.03;4918295;29;20051;-69
2022/11/24 02:59:32;;;;;;;9.27;5.65;;;;;;;4.15;97.42;100200.97;4935461;29;20044;-69
2022/11/24 03:02:00;;;;;;;13.07;6.65;;;;;;;4.20;97.03;100211.88;4918135;29;20039;-69
2022/11/24 03:04:28;;;;;;;11.77;6.70;;;;;;;4.26;96.87;100216.31;4935117;29;20047;-69
2022/11/24 03:06:57;;;;;;;12.52;6.60;;;;;;;4.35;96.67;100214.00;4935091;29;20051;-69
2022/11/24 03:09:24;;;;;;;11.00;6.72;;;;;;;4.47;95.63;100215.81;4935184;29;20062;-69
2022/11/24 03:11:52;;;;;;;9.50;6.00;;;;;;;4.27;95.70;100207.13;4935009;29;20047;-69
2022/11/24 03:14:22;;;;;;;9.70;6.60;;;;;;;4.20;96.07;100211.88;4914788;29;20056;-69
2022/11/24 03:16:49;;;;;;;11.30;6.65;;;;;;;4.24;96.39;100217.63;4916248;29;20056;-69
2022/11/24 03:19:17;;;;;;;12.68;6.85;;;;;;;4.22;95.81;100225.19;4916125;29;20044;-69
2022/11/24 03:21:45;;;;;;;9.32;6.30;;;;;;;4.31;95.28;100221.00;4915942;29;20044;-69
2022/11/24 03:24:13;;;;;;;8.27;5.53;;;;;;;4.22;95.61;100239.56;4913099;29;20044;-69
2022/11/24 03:26:41;;;;;;;13.02;6.72;;;;;;;4.23;95.73;100235.78;4935068;29;20502;-69
2022/11/24 03:29:09;;;;;;;10.57;5.68;;;;;;;4.17;96.13;100239.47;4917619;29;20043;-69
2022/11/24 03:31:37;;;;;;;10.52;6.18;;;;;;;4.15;96.55;100238.88;4934813;29;20070;-69
2022/11/24 03:34:05;;;;;;;9.30;6.32;;;;;;;4.11;96.57;100237.75;4934771;29;20525;-69
2022/11/24 03:36:33;;;;;;;11.68;6.07;;;;;;;4.18;96.64;100238.41;4934947;29;20067;-69
2022/11/24 03:39:01;;;;;;;8.10;5.18;;;;;;;4.17;96.57;100242.97;4933715;29;20082;-69
2022/11/24 03:41:29;;;;;;;11.95;6.00;;;;;;;4.14;97.15;100240.78;4934637;29;20075;-69
2022/11/24 03:43:57;;;;;;;6.85;5.32;;;;;;;4.08;97.59;100246.34;4934644;29;20517;-69
2022/11/24 03:46:25;;;;;;;7.45;5.43;;;;;;;4.07;97.64;100244.72;4934958;29;20545;-69
2022/11/24 03:48:52;;;;;;;9.90;5.50;;;;;;;4.06;97.87;100241.16;4918005;29;20051;-69
2022/11/24 03:51:21;;;;;;;11.35;6.38;;;;;;;4.07;98.18;100239.28;4934780;29;20384;-69
2022/11/24 03:53:48;;;;;;;8.30;5.63;;;;;;;4.11;97.87;100235.03;4917650;29;20043;-69
2022/11/24 03:56:16;;;;;;;9.95;5.60;;;;;;;4.11;98.04;100235.03;4935100;29;20368;-69
2022/11/24 03:58:44;;;;;;;13.23;5.53;;;;;;;4.11;97.96;100235.03;4934733;29;20070;-69
2022/11/24 04:01:12;;;;;;;9.48;5.32;;;;;;;4.08;97.37;100236.34;4934650;29;20051;-69
2022/11/24 04:03:40;;;;;;;9.77;5.65;;;;;;;4.10;97.58;100238.81;4934495;29;20055;-69
2022/11/24 04:06:09;;;;;;;9.05;5.63;;;;;;;4.10;97.70;100238.81;4905018;29;20044;-71
2022/11/24 04:08:36;;;;;;;9.63;5.78;;;;;;;4.14;97.13;100243.50;4915705;29;20523;-69
2022/11/24 04:11:05;;;;;;;9.50;5.65;;;;;;;4.14;97.01;100251.63;4915466;29;20496;-69
2022/11/24 04:13:33;;;;;;;8.40;4.95;;;;;;;4.12;97.61;100244.81;4932433;29;20055;-69
2022/11/24 04:16:05;;;;;;;7.82;5.40;;;;;;;4.12;97.77;100255.63;4934572;29;20044;-69
2022/11/24 04:18:33;;;;;;;8.50;5.30;;;;;;;3.97;98.04;100250.78;4933362;29;20055;-70
2022/11/24 04:21:01;;;;;;;11.98;5.82;;;;;;;4.04;99.12;100251.44;4933782;29;20051;-69
2022/11/24 04:23:28;;;;;;;8.00;6.20;;;;;;;4.11;98.35;100251.28;4934104;29;20048;-69
2022/11/24 04:25:56;;;;;;;13.25;6.90;;;;;;;4.13;98.86;100254.56;4934511;29;20048;-70
2022/11/24 04:28:24;;;;;;;8.27;5.20;;;;;;;4.13;98.54;100259.97;4934059;29;20043;-69
2022/11/24 04:30:52;;;;;;;8.20;5.60;;;;;;;4.13;98.32;100265.38;4934422;29;20052;-69
2022/11/24 04:33:20;;;;;;;10.48;6.50;;;;;;;4.09;98.59;100259.66;4934531;29;20043;-69
2022/11/24 04:35:52;;;;;;;15.27;6.22;;;;;;;4.07;98.51;100269.91;4934321;29;20062;-69
2022/11/24 04:38:20;;;;;;;10.35;6.20;;;;;;;4.00;98.74;100272.75;4916884;29;20083;-69
2022/11/24 04:41:08;;;;;;;8.10;5.72;;;;;;;4.01;98.30;100274.41;4936525;29;20043;-69
2022/11/24 04:43:36;;;;;;;9.27;5.97;;;;;;;4.05;98.31;100274.72;4937853;29;20495;-69
2022/11/24 04:46:10;;;;;;;9.18;5.97;;;;;;;4.13;98.44;100274.34;4937709;29;20044;-69
2022/11/24 04:48:38;;;;;;;10.88;6.70;;;;;;;4.17;97.74;100271.97;4936473;29;20047;-69
2022/11/24 04:51:06;;;;;;;10.00;6.20;;;;;;;4.15;98.13;100274.09;4937612;29;20059;-69
2022/11/24 04:53:34;;;;;;;11.35;6.05;;;;;;;4.05;98.61;100263.09;4937728;29;20500;-69
2022/11/24 04:56:06;;;;;;;10.63;6.50;;;;;;;4.06;98.40;100283.69;4937291;29;20522;-69
2022/11/24 04:58:34;;;;;;;10.20;6.53;;;;;;;3.94;98.35;100281.84;4937342;29;20059;-69
2022/11/24 05:01:06;;;;;;;9.25;5.55;;;;;;;3.98;98.98;100299.28;4937398;29;20055;-69
2022/11/24 05:03:35;;;;;;;8.82;6.03;;;;;;;4.07;98.42;100315.94;4920722;29;20052;-69
2022/11/24 05:06:04;;;;;;;9.90;6.63;;;;;;;4.15;97.81;100309.28;4937510;29;20044;-69
2022/11/24 05:08:31;;;;;;;9.32;5.22;;;;;;;4.12;97.71;100302.50;4920183;29;20411;-69
2022/11/24 05:11:04;;;;;;;9.18;6.05;;;;;;;4.01;97.94;100311.50;4936181;29;20062;-70
2022/11/24 05:13:32;;;;;;;11.80;6.78;;;;;;;3.98;97.68;100309.28;4937367;29;20050;-70
2022/11/24 05:16:00;;;;;;;8.48;5.72;;;;;;;3.95;97.98;100313.28;4937315;29;20052;-70
2022/11/24 05:18:28;;;;;;;11.18;6.78;;;;;;;3.99;98.04;100317.16;4920138;29;20051;-69
2022/11/24 05:20:57;;;;;;;9.35;5.80;;;;;;;3.90;97.79;100324.00;4936932;29;20507;-69
2022/11/24 05:23:26;;;;;;;11.90;6.30;;;;;;;3.84;98.47;100333.94;4937030;29;20051;-70
2022/11/24 05:25:58;;;;;;;10.75;6.45;;;;;;;3.88;98.48;100339.69;4937128;29;20530;-69
2022/11/24 05:28:26;;;;;;;16.75;7.88;;;;;;;3.90;97.69;100340.25;4915927;29;20052;-69
2022/11/24 05:30:58;;;;;;;13.32;8.18;;;;;;;3.88;97.77;100339.69;4917913;29;20044;-69
2022/11/24 05:33:27;;;;;;;14.90;7.57;;;;;;;3.84;97.52;100346.63;4925706;29;20055;-69
2022/11/24 05:36:00;;;;;;;11.48;7.20;;;;;;;3.84;97.06;100352.88;4936640;29;20040;-69
2022/11/24 05:38:29;;;;;;;13.10;7.95;;;;;;;3.79;97.46;100350.06;4936453;29;20051;-70
2022/11/24 05:41:01;;;;;;;15.57;7.70;;;;;;;3.79;98.03;100360.06;4939371;29;20051;-70
2022/11/24 05:43:29;;;;;;;13.80;7.35;;;;;;;3.78;97.08;100374.66;4939433;29;20040;-70
2022/11/24 05:46:00;;;;;;;22.45;8.88;;;;;;;4.34;100.00;100390.38;4936732;29;20506;-68
2022/11/24 05:48:28;;;;;;;15.50;9.13;;;;;;;4.25;94.26;100403.50;4936333;29;20075;-81
2022/11/24 05:50:57;;;;;;;15.23;9.48;;;;;;;4.01;94.41;100417.91;4935281;29;20051;-78
2022/11/24 05:53:25;;;;;;;13.50;8.32;;;;;;;3.78;95.74;100421.53;4936102;29;20062;-80
2022/11/24 05:55:53;;;;;;;18.13;7.40;;;;;;;4.10;95.65;100431.91;4951030;29;20054;-80
2022/11/24 05:58:22;;;;;;;11.27;7.28;;;;;;;3.93;92.82;100426.44;4955568;28;20067;-80
2022/11/24 06:00:50;;;;;;;11.10;7.55;;;;;;;3.71;94.03;100434.38;4919665;29;20408;-79
2022/11/24 06:03:18;;;;;;;14.82;7.30;;;;;;;3.49;94.71;100446.59;4936041;29;20044;-78
2022/11/24 06:05:46;;;;;;;10.80;7.05;;;;;;;3.54;95.72;100442.34;4918748;29;20056;-78
2022/11/24 06:08:15;;;;;;;12.45;6.72;;;;;;;3.51;95.26;100437.44;4955272;28;20047;-79
2022/11/24 06:10:42;;;;;;;11.27;6.97;;;;;;;3.64;95.53;100442.59;4925225;28;20055;-78
2022/11/24 06:13:10;;;;;;;12.63;7.18;;;;;;;3.68;94.95;100453.78;4938283;28;20553;-78
2022/11/24 06:15:39;;;;;;;9.18;6.78;;;;;;;3.60;94.87;100460.34;4936050;29;20048;-77
2022/11/24 06:18:07;;;;;;;13.60;7.82;;;;;;;3.46;95.07;100452.50;4934146;29;20052;-77
2022/11/24 06:20:35;;;;;;;11.07;7.15;;;;;;;3.40;94.88;100461.53;4917343;29;20056;-76
2022/11/24 06:23:03;;;;;;;9.70;7.07;;;;;;;3.47;94.70;100462.25;4935308;29;20052;-78
2022/11/24 06:25:34;;;;;;;11.65;6.60;;;;;;;3.41;94.71;100462.38;4935671;29;20051;-78
2022/11/24 06:28:03;;;;;;;8.70;5.97;;;;;;;3.48;94.58;100460.38;4935834;29;20047;-78
2022/11/24 06:30:31;;;;;;;12.73;7.00;;;;;;;3.49;94.59;100468.22;4935810;29;20499;-78
2022/11/24 06:33:00;;;;;;;15.18;7.72;;;;;;;3.56;95.07;100470.03;4935723;29;20062;-78
2022/11/24 06:35:28;;;;;;;13.18;6.78;;;;;;;3.61;95.06;100476.38;4935586;29;20055;-78
2022/11/24 06:37:56;;;;;;;12.35;6.60;;;;;;;3.48;95.43;100476.59;4935598;29;20048;-78
2022/11/24 06:40:23;;;;;;;8.00;5.78;;;;;;;3.71;96.58;100481.19;4935498;29;20055;-71
2022/11/24 06:42:51;;;;;;;8.85;5.75;;;;;;;3.97;93.35;100475.50;4935560;29;20043;-69
2022/11/24 06:45:19;;;;;;;9.07;5.40;;;;;;;4.01;92.81;100485.63;4935567;29;20502;-68
2022/11/24 06:47:47;;;;;;;7.75;5.82;;;;;;;4.00;92.26;100480.44;4935413;29;20070;-69
2022/11/24 06:50:15;;;;;;;9.55;6.43;;;;;;;4.15;92.24;100469.09;4935441;29;20051;-69
2022/11/24 06:52:43;;;;;;;10.23;6.47;;;;;;;3.98;93.40;100471.72;4935296;29;20047;-68
2022/11/24 06:55:11;;;;;;;13.65;7.05;;;;;;;4.05;93.24;100471.63;4935441;29;20054;-69
2022/11/24 06:57:39;;;;;;;14.15;6.90;;;;;;;4.05;93.75;100475.13;4935291;29;20047;-69
2022/11/24 07:00:07;;;;;;;11.13;6.38;;;;;;;4.18;93.64;100479.47;4935184;29;20403;-68
2022/11/24 07:02:35;;;;;;;12.68;6.75;;;;;;;4.27;94.23;100488.88;4917762;29;20056;-69
2022/11/24 07:05:10;;;;;;;9.98;6.07;;;;;;;4.30;93.85;100503.81;4935268;29;20048;-68
2022/11/24 07:07:38;;;;;;;11.75;6.35;;;;;;;4.21;93.91;100505.25;4917909;29;20055;-68
2022/11/24 07:10:07;;;;;;;10.07;5.97;;;;;;;4.32;93.38;100507.13;4935142;29;20078;-68
2022/11/24 07:12:35;;;;;;;9.65;6.22;;;;;;;4.41;93.20;100499.44;4917564;29;20044;-69
2022/11/24 07:15:03;;;;;;;10.80;6.70;;;;;;;4.55;93.25;100506.19;4935024;29;20048;-69
2022/11/24 07:17:35;;;;;;;13.95;6.95;;;;;;;4.67;93.46;100508.03;4918072;29;20057;-69
2022/11/24 07:20:04;;;;;;;14.63;7.47;;;;;;;4.74;92.83;100518.75;4934916;29;20506;-69
2022/11/24 07:22:33;;;;;;;13.32;7.15;;;;;;;4.84;92.40;100516.25;4934804;29;20056;-69
2022/11/24 07:25:01;;;;;;;14.18;7.28;;;;;;;4.88;92.84;100519.28;4934978;29;20052;-69
2022/11/24 07:27:29;;;;;;;14.82;7.50;;;;;;;5.02;91.91;100542.31;4934871;29;20051;-69
2022/11/24 07:29:57;;;;;;;13.70;7.13;;;;;;;5.20;91.45;100543.16;4934923;29;20052;-69
2022/11/24 07:32:25;;;;;;;12.13;6.82;;;;;;;5.30;90.87;100540.63;4934805;29;20513;-69
2022/11/24 07:34:52;;;;;;;12.60;6.88;;;;;;;5.34;90.53;100539.06;4934858;29;20055;-68
2022/11/24 07:37:20;;;;;;;11.18;6.95;;;;;;;5.55;90.12;100544.00;4934811;29;20043;-69
2022/11/24 07:39:54;;;;;;;;;;;;;;;5.61;90.32;100548.44;4935147;29;20403;-68
2022/11/24 07:42:22;;;;;;;18.67;7.68;;;;;;;5.73;88.36;100556.53;4934770;29;19927;-68
2022/11/24 07:44:50;;;;;;;13.55;7.18;;;;;;;5.82;88.10;100557.72;4934725;29;20059;-69
2022/11/24 07:47:17;;;;;;;15.02;8.52;;;;;;;6.00;87.30;100553.94;4934656;29;20051;-69
2022/11/24 07:49:45;;;;;;;17.67;8.55;;;;;;;5.98;86.74;100555.25;4934704;29;20369;-68
2022/11/24 07:52:13;;;;;;;21.35;8.40;;;;;;;5.98;87.77;100564.22;4934519;29;20427;-69
2022/11/24 07:54:41;;;;;;;15.00;8.45;;;;;;;6.15;87.56;100572.38;4934666;29;20058;-68
2022/11/24 07:57:09;;;;;;;14.63;7.97;;;;;;;6.30;86.35;100571.75;4917023;29;20423;-69
2022/11/24 07:59:37;;;;;;;13.48;8.02;;;;;;;6.38;86.68;100581.38;4934533;29;20054;-69
2022/11/24 08:02:05;;;;;;;12.25;7.05;;;;;;;6.49;86.45;100581.53;4917371;29;20052;-68
2022/11/24 08:04:35;;;;;;;15.52;7.60;;;;;;;6.58;85.09;100586.25;4934439;29;20054;-68
2022/11/24 08:07:03;;;;;;;20.00;8.68;;;;;;;6.72;85.67;100588.59;4917353;29;20062;-68
2022/11/24 08:09:31;;;;;;;21.42;9.07;;;;;;;6.76;85.48;100589.75;4934500;29;20056;-68
2022/11/24 08:11:59;;;;;;;16.17;8.82;;;;;;;6.86;85.65;100598.00;4934172;29;20060;-68
2022/11/24 08:14:27;;;;;;;16.08;8.88;;;;;;;7.03;85.19;100599.81;4934496;29;20047;-68
2022/11/24 08:16:56;;;;;;;18.65;8.80;;;;;;;7.28;84.50;100593.00;4937967;29;20059;-68
2022/11/24 08:19:24;;;;;;;15.60;9.18;;;;;;;7.31;84.02;100595.22;4938194;29;20052;-68
2022/11/24 08:21:52;;;;;;;15.23;8.00;;;;;;;7.36;84.27;100595.25;4920055;29;20048;-68
2022/11/24 08:24:20;;;;;;;11.90;7.70;;;;;;;7.31;84.72;100606.09;4938129;29;20151;-68
2022/11/24 08:26:48;;;;;;;17.15;8.43;;;;;;;7.33;84.01;100616.75;4937937;29;20035;-69
2022/11/24 08:29:16;;;;;;;15.15;7.72;;;;;;;7.45;82.89;100616.56;4938051;29;20055;-68
2022/11/24 08:31:44;;;;;;;17.20;7.60;;;;;;;7.49;81.78;100596.72;4920730;29;20059;-68
2022/11/24 08:34:12;;;;;;;18.70;8.07;;;;;;;7.33;82.99;100581.34;4937910;29;20746;-68
2022/11/24 08:36:40;;;;;;;14.57;8.07;;;;;;;7.48;82.67;100599.72;4936637;29;20063;-69
2022/11/24 08:39:10;;;;;;;16.30;8.50;;;;;;;8.00;82.17;100609.13;4937766;29;20102;-68
2022/11/24 08:41:38;;;;;;;19.05;7.93;;;;;;;8.13;80.99;100605.13;4920082;29;20499;-69
2022/11/24 08:44:08;;;;;;;17.20;8.88;;;;;;;7.92;80.69;100607.69;4937609;29;20059;-68
2022/11/24 08:46:36;;;;;;;13.90;7.30;;;;;;;8.32;79.68;100608.22;4920043;29;20043;-68
2022/11/24 08:49:05;;;;;;;14.88;7.63;;;;;;;8.57;79.38;100609.47;4937517;29;20043;-68
2022/11/24 08:51:33;;;;;;;16.45;8.13;;;;;;;8.76;79.41;100614.47;4937587;29;20475;-69
2022/11/24 08:54:01;;;;;;;16.85;8.55;;;;;;;8.94;78.18;100624.06;4937394;29;20062;-68
2022/11/24 08:56:31;;;;;;;21.23;9.75;;;;;;;8.96;78.92;100640.19;4937591;29;20058;-68
2022/11/24 08:58:59;;;;;;;18.88;9.63;;;;;;;9.02;78.57;100647.31;4937440;29;20048;-68
2022/11/24 09:01:28;;;;;;;22.08;10.05;;;;;;;9.12;78.71;100625.50;4937275;29;20052;-69
2022/11/24 09:03:56;;;;;;;17.52;10.20;;;;;;;9.25;78.34;100632.34;4937391;29;20055;-68
2022/11/24 09:06:29;;;;;;;31.17;11.30;;;;;;;9.31;77.20;100638.66;4937299;29;20051;-69
2022/11/24 09:08:58;;;;;;;30.40;16.05;;;;;;;9.35;78.58;100639.78;4937305;29;20483;-69
2022/11/24 09:11:27;;;;;;;29.20;15.80;;;;;;;9.71;77.26;100638.16;4920210;29;20519;-69
2022/11/24 09:13:55;;;;;;;24.10;11.65;;;;;;;9.92;77.33;100650.72;4937200;29;20396;-68
2022/11/24 09:16:26;;;;;;;22.27;10.77;;;;;;;10.15;77.06;100651.28;4937130;29;20510;-69
2022/11/24 09:19:00;;;;;;;17.73;9.82;;;;;;;10.09;76.13;100655.91;4937114;29;20399;-69
2022/11/24 09:21:30;;;;;;;18.83;11.73;;;;;;;10.38;75.37;100660.00;4937053;29;20067;-69
2022/11/24 09:23:57;;;;;;;21.20;11.00;;;;;;;10.61;75.11;100661.31;4935644;29;20056;-68
2022/11/24 09:26:28;;;;;;;19.42;10.27;;;;;;;10.37;74.72;100652.06;4935869;29;20395;-68
2022/11/24 09:28:57;;;;;;;17.60;9.10;;;;;;;10.34;74.27;100648.78;4919441;29;20059;-68
2022/11/24 09:31:28;;;;;;;20.15;8.77;;;;;;;10.73;73.22;100654.72;4936832;29;20403;-69
2022/11/24 09:33:56;;;;;;;15.43;10.20;;;;;;;10.87;72.26;100650.28;4919599;29;20499;-68
2022/11/24 09:36:24;;;;;;;14.18;8.68;;;;;;;11.16;72.00;100646.06;4936749;29;20504;-68
2022/11/24 09:38:52;;;;;;;15.77;9.80;;;;;;;11.26;71.50;100651.47;4936670;29;20048;-68
2022/11/24 09:41:32;;;;;;;15.07;9.75;;;;;;;11.49;70.70;100637.38;4936596;29;20056;-68
2022/11/24 09:44:21;;;;;;;17.40;9.95;;;;;;;11.62;69.74;100644.09;4936663;29;20043;-68
2022/11/24 09:47:10;;;;;;;17.80;9.88;;;;;;;11.91;69.28;100643.34;4936527;29;20407;-68
2022/11/24 09:49:47;;;;;;;14.02;9.35;;;;;;;11.89;68.84;100640.06;4936570;29;20075;-68
2022/11/24 09:52:41;;;;;;;17.05;8.93;;;;;;;11.70;68.35;100638.03;4936524;29;20055;-68
2022/11/24 09:55:23;;;;;;;14.88;9.27;;;;;;;11.58;68.25;100623.88;4936326;29;20048;-69
2022/11/24 09:58:02;;;;;;;12.80;9.07;;;;;;;11.78;67.94;100618.22;4936422;29;20051;-68
2022/11/24 10:00:30;;;;;;;16.15;9.05;;;;;;;11.89;67.18;100618.13;4936310;29;20039;-68
2022/11/24 10:02:58;;;;;;;14.82;9.40;;;;;;;11.66;68.86;100632.31;4936233;29;20059;-69
2022/11/24 10:05:31;;;;;;;14.15;9.27;;;;;;;12.17;68.03;100623.94;4918768;29;20052;-69
2022/11/24 10:08:15;;;;;;;19.23;10.02;;;;;;;12.08;67.19;100624.56;4936326;29;20051;-69
2022/11/24 10:10:56;;;;;;;18.60;10.27;;;;;;;12.21;67.38;100638.69;4936333;29;20048;-68
2022/11/24 10:13:32;;;;;;;18.67;10.35;;;;;;;12.68;66.94;100638.19;4936174;29;20051;-68
2022/11/24 10:16:20;;;;;;;15.32;10.00;;;;;;;12.89;66.16;100638.78;4915363;29;20059;-68
2022/11/24 10:19:44;;;;;;;17.52;10.38;;;;;;;12.99;64.67;100649.63;4926691;29;20427;-68
2022/11/24 10:22:26;;;;;;;18.20;10.63;;;;;;;13.04;64.29;100641.31;4858398;29;20497;-68
2022/11/24 10:25:07;;;;;;;14.70;10.20;;;;;;;13.16;64.35;100637.34;4935954;29;20051;-68
2022/11/24 10:27:40;;;;;;;19.23;10.90;;;;;;;13.25;63.98;100649.28;4941059;29;20047;-69
2022/11/24 10:30:28;;;;;;;27.98;12.57;;;;;;;13.33;63.57;100645.06;4955000;29;20051;-68
2022/11/24 10:33:20;;;;;;;17.83;11.38;;;;;;;13.04;64.55;100646.81;4955001;29;20051;-68
2022/11/24 10:36:10;;;;;;;17.45;10.25;;;;;;;13.15;63.46;100653.00;4952728;29;20491;-68
2022/11/24 10:38:51;;;;;;;18.70;11.52;;;;;;;13.09;63.83;100648.69;4954618;28;20054;-68
2022/11/24 10:41:35;;;;;;;20.58;11.98;;;;;;;13.23;64.35;100647.94;4954748;29;20047;-68
2022/11/24 10:44:03;;;;;;;17.53;10.93;;;;;;;13.14;64.63;100645.88;4954816;29;20050;-68
2022/11/24 10:46:31;;;;;;;15.88;10.48;;;;;;;13.03;64.72;100652.59;4954751;29;20058;-68
2022/11/24 10:49:05;;;;;;;23.10;12.65;;;;;;;13.22;64.54;100651.81;4954651;29;20482;-68
2022/11/24 10:51:39;;;;;;;20.30;12.07;;;;;;;13.44;64.15;100649.28;4937295;29;20391;-68
2022/11/24 10:54:16;;;;;;;22.33;12.03;;;;;;;13.36;63.80;100643.66;4954556;29;20058;-68
2022/11/24 10:56:46;;;;;;;25.08;12.77;;;;;;;13.41;64.07;100654.56;4954629;29;20047;-68
2022/11/24 10:59:23;;;;;;;21.60;12.60;;;;;;;13.42;63.15;100648.78;4954510;29;20063;-68
2022/11/24 11:01:52;;;;;;;22.95;12.90;;;;;;;13.54;63.85;100653.84;4954553;29;20054;-68
2022/11/24 11:04:24;;;;;;;21.52;11.27;;;;;;;13.75;63.52;100647.22;4954442;29;20047;-68
2022/11/24 11:07:07;;;;;;;19.45;12.02;;;;;;;13.46;63.76;100648.16;4954315;29;20043;-68
2022/11/24 11:09:35;;;;;;;22.38;12.38;;;;;;;13.70;64.10;100642.63;4954340;29;20066;-68
2022/11/24 11:12:33;;;;;;;20.85;13.07;;;;;;;13.78;62.87;100641.91;4954309;29;20407;-68
2022/11/24 11:15:25;;;;;;;23.92;12.13;;;;;;;13.74;61.91;100645.59;4950164;29;20406;-68
2022/11/24 11:17:57;;;;;;;20.00;11.48;;;;;;;13.91;61.62;100639.50;4954222;29;20051;-69
2022/11/24 11:20:33;;;;;;;25.30;12.25;;;;;;;13.95;61.65;100648.81;4936944;29;20051;-68
2022/11/24 11:23:15;;;;;;;20.15;11.30;;;;;;;13.78;61.91;100646.63;4954089;29;20067;-68
2022/11/24 11:25:43;;;;;;;20.83;12.73;;;;;;;13.94;60.32;100658.97;4937303;29;20066;-68
2022/11/24 11:28:17;;;;;;;22.98;13.05;;;;;;;13.92;62.62;100647.47;4936741;29;20051;-68
2022/11/24 11:30:58;;;;;;;18.10;12.15;;;;;;;14.02;62.11;100649.22;4954132;29;20050;-69
2022/11/24 11:34:01;;;;;;;25.42;14.60;;;;;;;14.23;60.83;100641.44;4939864;29;20047;-69
2022/11/24 11:36:32;;;;;;;23.48;12.38;;;;;;;13.83;61.30;100639.09;4954124;29;20050;-69
2022/11/24 11:39:02;;;;;;;20.73;12.02;;;;;;;14.02;62.88;100640.97;4954039;29;20048;-69